Tooting, United Kingdom
Current Conditions -  °F | °C
As of 4:20 PM on Saturday 20 Dec 2014 (Local Time) from EGLC Reporting Station
Broken Clouds Broken Clouds  
Wind Chill: 42°   Ceiling: 4000
Heat Index: 48°   Visibility: 6mi
Dew Point: 37°   Wind: 16mph
Humidity: 66%   Direction: 280°W
Pressure: 30.33"   Gusts: NA
Location:  51.43°N, 0.18°W
Report Text: EGLC 201620Z AUTO 28014KT 9999 BKN040/// 09/03 Q1027
Loading
Personal Weather Stations






























Interactive Weather Map New forecast layout! Learn more

10-Day Weather Forecast

Advertisements
Track Severe Weather on mobile